createdAt,value
2018-07-17T00:00:16.879Z,9.85
2018-07-17T00:02:46.341Z,10.93
2018-07-17T00:05:16.820Z,9.60
2018-07-17T00:07:45.689Z,10.15
2018-07-17T00:10:15.853Z,9.65
2018-07-17T00:12:44.251Z,9.95
2018-07-17T00:15:13.637Z,9.18
2018-07-17T00:17:43.123Z,9.70
2018-07-17T00:20:13.040Z,10.20
2018-07-17T00:22:44.558Z,10.20
2018-07-17T00:25:14.169Z,9.88
2018-07-17T00:27:43.082Z,9.63
2018-07-17T00:30:11.894Z,9.93
2018-07-17T00:32:42.806Z,9.13
2018-07-17T00:35:12.163Z,9.68
2018-07-17T00:37:41.990Z,10.20
2018-07-17T00:40:12.009Z,10.10
2018-07-17T00:42:42.463Z,10.20
2018-07-17T00:45:13.049Z,10.00
2018-07-17T00:47:42.140Z,10.72
2018-07-17T00:50:15.436Z,10.10
2018-07-17T00:52:44.489Z,9.98
2018-07-17T00:55:13.043Z,9.73
2018-07-17T00:57:45.766Z,11.18
2018-07-17T01:00:14.949Z,11.28
2018-07-17T01:02:51.130Z,10.35
2018-07-17T01:05:26.188Z,11.43
2018-07-17T01:08:00.528Z,11.08
2018-07-17T01:10:35.441Z,11.33
2018-07-17T01:13:03.309Z,11.18
2018-07-17T01:15:37.374Z,11.33
2018-07-17T01:18:06.268Z,11.78
2018-07-17T01:20:35.421Z,11.75
2018-07-17T01:23:05.449Z,11.78
2018-07-17T01:25:34.183Z,12.93
2018-07-17T01:28:04.632Z,12.37
2018-07-17T01:30:34.180Z,12.70
2018-07-17T01:33:02.922Z,11.95
2018-07-17T01:35:32.014Z,11.73
2018-07-17T01:38:02.812Z,11.57
2018-07-17T01:40:33.133Z,10.95
2018-07-17T01:43:01.921Z,11.60
2018-07-17T01:45:30.729Z,11.15
2018-07-17T01:47:59.495Z,11.68
2018-07-17T01:50:28.900Z,10.90
2018-07-17T01:53:00.248Z,10.45
2018-07-17T01:55:28.979Z,10.78
2018-07-17T01:57:57.971Z,10.35
2018-07-17T02:00:27.335Z,10.48
2018-07-17T02:02:56.091Z,10.63
2018-07-17T02:05:24.876Z,9.90
2018-07-17T02:07:55.045Z,10.25
2018-07-17T02:10:23.981Z,11.20
2018-07-17T02:12:53.580Z,10.58
2018-07-17T02:15:22.623Z,10.70
2018-07-17T02:17:52.745Z,10.48
2018-07-17T02:20:21.939Z,9.95
2018-07-17T02:22:50.718Z,10.23
2018-07-17T02:25:20.299Z,10.40
2018-07-17T02:27:50.827Z,9.15
2018-07-17T02:30:21.144Z,10.30
2018-07-17T02:32:51.063Z,10.32
2018-07-17T02:35:21.489Z,11.03
2018-07-17T02:37:51.041Z,11.68
2018-07-17T02:40:19.821Z,11.35
2018-07-17T02:42:50.195Z,11.20
2018-07-17T02:45:18.950Z,11.53
2018-07-17T02:47:47.844Z,11.23
2018-07-17T02:50:16.352Z,10.80
2018-07-17T02:52:45.523Z,11.05
2018-07-17T02:55:14.207Z,10.45
2018-07-17T02:57:43.000Z,10.93
2018-07-17T03:00:11.337Z,10.80
2018-07-17T03:02:40.108Z,10.65
2018-07-17T03:05:08.643Z,9.88
2018-07-17T03:07:38.457Z,9.90
2018-07-17T03:10:07.802Z,10.15
2018-07-17T03:12:37.717Z,10.85
2018-07-17T03:15:06.734Z,11.43
2018-07-17T03:17:36.964Z,11.40
2018-07-17T03:20:05.697Z,11.50
2018-07-17T03:22:35.130Z,10.98
2018-07-17T03:25:03.893Z,11.63
2018-07-17T03:27:32.706Z,11.05
2018-07-17T03:30:01.781Z,10.80
2018-07-17T03:32:30.594Z,11.93
2018-07-17T03:34:59.192Z,11.68
2018-07-17T03:37:29.193Z,12.47
2018-07-17T03:39:58.053Z,12.50
2018-07-17T03:42:29.166Z,12.90
2018-07-17T03:45:00.096Z,12.78
2018-07-17T03:47:31.022Z,12.10
2018-07-17T03:49:59.605Z,11.93
2018-07-17T03:52:28.372Z,12.28
2018-07-17T03:54:57.086Z,11.65
2018-07-17T03:57:25.788Z,11.85
2018-07-17T03:59:57.777Z,11.50
2018-07-17T04:02:26.515Z,11.65
2018-07-17T04:04:55.318Z,11.83
2018-07-17T04:07:31.040Z,11.83
2018-07-17T04:10:01.169Z,11.38
2018-07-17T04:12:30.015Z,11.73
2018-07-17T04:15:00.442Z,11.00
2018-07-17T04:17:29.333Z,11.33
2018-07-17T04:19:58.348Z,11.28
2018-07-17T04:22:27.240Z,11.57
2018-07-17T04:24:57.774Z,11.48
2018-07-17T04:27:29.256Z,11.10
2018-07-17T04:29:58.327Z,11.57
2018-07-17T04:32:28.632Z,11.48
2018-07-17T04:34:58.041Z,11.28
2018-07-17T04:37:27.160Z,12.03
2018-07-17T04:39:56.837Z,11.53
2018-07-17T04:42:26.952Z,12.50
2018-07-17T04:44:56.347Z,11.18
2018-07-17T04:47:25.346Z,11.12
2018-07-17T04:49:55.005Z,11.08
2018-07-17T04:52:23.949Z,11.08
2018-07-17T04:54:52.856Z,11.05
2018-07-17T04:57:21.744Z,10.65
2018-07-17T04:59:51.381Z,9.90
2018-07-17T05:02:20.218Z,10.53
2018-07-17T05:04:50.665Z,10.35
2018-07-17T05:07:19.652Z,9.90
2018-07-17T05:09:48.448Z,9.65
2018-07-17T05:12:17.457Z,10.18
2018-07-17T05:14:46.451Z,12.23
2018-07-17T05:17:15.457Z,9.35
2018-07-17T05:19:45.569Z,9.63
2018-07-17T05:22:15.768Z,10.38
2018-07-17T05:24:44.649Z,10.40
2018-07-17T05:27:13.501Z,9.90
2018-07-17T05:29:45.203Z,11.35
2018-07-17T05:32:14.424Z,10.70
2018-07-17T05:34:44.819Z,9.50
2018-07-17T05:37:13.765Z,9.60
2018-07-17T05:39:45.243Z,8.70
2018-07-17T05:42:14.957Z,9.50
2018-07-17T05:44:44.602Z,10.60
2018-07-17T05:47:14.793Z,9.83
2018-07-17T05:49:44.252Z,9.00
2018-07-17T05:52:13.279Z,9.88
2018-07-17T05:54:42.836Z,9.53
2018-07-17T05:57:12.732Z,9.83
2018-07-17T05:59:42.077Z,8.78
2018-07-17T06:02:12.815Z,8.75
2018-07-17T06:04:43.391Z,8.73
2018-07-17T06:07:13.302Z,8.38
2018-07-17T06:12:21.036Z,8.38
2018-07-17T06:14:51.076Z,8.68
2018-07-17T06:17:27.449Z,8.25
2018-07-17T06:20:01.945Z,9.43
2018-07-17T06:22:32.531Z,7.85
2018-07-17T06:25:02.271Z,7.35
2018-07-17T06:27:31.761Z,7.05
2018-07-17T06:30:00.782Z,7.40
2018-07-17T06:32:31.533Z,7.15
2018-07-17T06:35:01.572Z,6.60
2018-07-17T06:37:32.533Z,5.10
2018-07-17T06:40:01.920Z,5.10
2018-07-17T06:42:31.668Z,5.90
2018-07-17T06:45:02.826Z,5.45
2018-07-17T06:47:32.158Z,4.47
2018-07-17T06:50:01.563Z,5.22
2018-07-17T06:52:32.259Z,5.55
2018-07-17T06:55:07.714Z,8.53
2018-07-17T07:14:20.663Z,4.72
2018-07-17T07:16:57.654Z,5.20
2018-07-17T07:19:33.889Z,5.08
2018-07-17T07:25:13.869Z,5.00
2018-07-17T07:30:38.678Z,4.33
2018-07-17T07:33:53.169Z,4.97
2018-07-17T07:41:01.609Z,5.03
2018-07-17T07:43:58.460Z,5.25
2018-07-17T07:46:27.988Z,3.95
2018-07-17T07:48:58.919Z,5.20
2018-07-17T07:51:30.915Z,4.33
2018-07-17T07:54:00.891Z,4.45
2018-07-17T07:56:33.228Z,4.50
2018-07-17T07:59:02.742Z,4.50
2018-07-17T08:01:31.676Z,4.90
2018-07-17T08:04:01.962Z,4.35
2018-07-17T08:06:31.016Z,5.50
2018-07-17T08:08:59.437Z,4.53
2018-07-17T08:11:28.214Z,5.00
2018-07-17T08:13:57.790Z,4.67
2018-07-17T08:16:26.747Z,4.53
2018-07-17T08:18:56.259Z,4.80
2018-07-17T08:21:25.710Z,4.42
2018-07-17T08:23:54.718Z,4.67
2018-07-17T08:26:24.373Z,4.20
2018-07-17T08:28:53.436Z,4.33
2018-07-17T08:31:22.272Z,4.35
2018-07-17T08:33:51.444Z,4.58
2018-07-17T08:36:20.281Z,4.20
2018-07-17T08:38:49.273Z,4.20
2018-07-17T08:41:18.331Z,4.40
2018-07-17T08:43:47.324Z,4.30
2018-07-17T08:46:17.484Z,4.65
2018-07-17T08:48:46.285Z,4.53
2018-07-17T08:51:16.408Z,5.60
2018-07-17T08:56:39.037Z,5.08
2018-07-17T08:59:08.095Z,7.10
2018-07-17T09:01:38.586Z,5.25
2018-07-17T09:04:07.696Z,4.95
2018-07-17T09:06:37.147Z,4.80
2018-07-17T09:09:07.154Z,4.60
2018-07-17T09:11:36.282Z,4.50
2018-07-17T09:14:05.613Z,3.90
2018-07-17T09:16:34.686Z,4.15
2018-07-17T09:19:05.678Z,4.35
2018-07-17T09:21:35.762Z,4.10
2018-07-17T09:24:05.268Z,4.35
2018-07-17T09:26:34.648Z,4.58
2018-07-17T09:29:04.189Z,4.50
2018-07-17T09:31:34.212Z,4.72
2018-07-17T09:34:04.879Z,4.47
2018-07-17T09:36:35.664Z,4.25
2018-07-17T09:39:08.621Z,4.20
2018-07-17T09:41:37.907Z,4.42
2018-07-17T09:44:06.703Z,4.50
2018-07-17T09:46:35.914Z,4.45
2018-07-17T09:49:06.315Z,4.83
2018-07-17T09:51:37.780Z,4.60
2018-07-17T09:54:07.445Z,4.83
2018-07-17T09:56:36.272Z,4.42
2018-07-17T09:59:05.147Z,4.40
2018-07-17T10:01:39.242Z,7.28
2018-07-17T10:04:08.661Z,4.70
2018-07-17T10:06:37.502Z,3.83
2018-07-17T10:09:07.366Z,4.28
2018-07-17T10:11:36.704Z,4.55
2018-07-17T10:14:05.817Z,5.03
2018-07-17T10:16:34.731Z,4.50
2018-07-17T10:19:03.111Z,4.53
2018-07-17T10:21:31.782Z,4.92
2018-07-17T10:24:00.608Z,4.17
2018-07-17T10:26:30.146Z,4.50
2018-07-17T10:28:59.029Z,4.80
2018-07-17T10:31:32.530Z,4.72
2018-07-17T10:34:01.899Z,4.92
2018-07-17T10:36:30.619Z,4.65
2018-07-17T10:38:59.510Z,4.60
2018-07-17T10:41:29.166Z,4.50
2018-07-17T10:43:58.746Z,4.60
2018-07-17T10:46:27.536Z,4.87
2018-07-17T10:48:56.816Z,4.60
2018-07-17T10:51:26.626Z,4.58
2018-07-17T10:53:56.522Z,4.60
2018-07-17T10:56:25.702Z,4.70
2018-07-17T10:58:55.119Z,8.58
2018-07-17T11:01:29.598Z,4.78
2018-07-17T11:03:58.095Z,4.50
2018-07-17T11:06:29.188Z,5.00
2018-07-17T11:08:58.830Z,4.83
2018-07-17T11:11:27.643Z,4.90
2018-07-17T11:13:56.374Z,5.12
2018-07-17T11:16:25.168Z,4.55
2018-07-17T11:18:54.234Z,5.12
2018-07-17T11:21:23.027Z,5.10
2018-07-17T11:23:52.577Z,5.15
2018-07-17T11:26:21.602Z,4.90
2018-07-17T11:28:50.510Z,5.08
2018-07-17T11:31:19.404Z,4.97
2018-07-17T11:33:48.730Z,5.12
2018-07-17T11:36:18.758Z,6.10
2018-07-17T11:38:48.323Z,6.28
2018-07-17T11:41:17.760Z,4.78
2018-07-17T11:43:46.595Z,4.80
2018-07-17T11:46:15.426Z,5.20
2018-07-17T11:48:44.318Z,5.20
2018-07-17T11:51:13.280Z,5.22
2018-07-17T11:53:42.160Z,4.92
2018-07-17T11:56:11.020Z,5.50
2018-07-17T11:58:39.935Z,5.00
2018-07-17T12:01:10.874Z,4.90
2018-07-17T12:03:40.198Z,4.80
2018-07-17T12:06:08.969Z,5.15
2018-07-17T12:08:37.754Z,5.03
2018-07-17T12:11:06.645Z,5.05
2018-07-17T12:13:35.801Z,4.90
2018-07-17T12:16:04.605Z,4.97
2018-07-17T12:18:33.370Z,4.92
2018-07-17T12:21:27.357Z,4.62
2018-07-17T12:23:56.598Z,5.08
2018-07-17T12:26:25.790Z,5.00
2018-07-17T12:28:54.936Z,4.97
2018-07-17T12:31:23.872Z,5.60
2018-07-17T12:33:52.738Z,5.30
2018-07-17T12:36:21.883Z,5.35
2018-07-17T12:38:52.019Z,4.97
2018-07-17T12:41:21.581Z,5.40
2018-07-17T12:43:50.352Z,4.83
2018-07-17T12:46:19.599Z,5.30
2018-07-17T12:48:48.383Z,5.50
2018-07-17T12:51:17.296Z,5.33
2018-07-17T12:53:46.131Z,5.40
2018-07-17T12:56:14.927Z,5.17
2018-07-17T12:58:43.949Z,5.25
2018-07-17T13:01:13.055Z,4.72
2018-07-17T13:03:41.857Z,4.78
2018-07-17T13:06:10.830Z,4.80
2018-07-17T13:08:39.832Z,5.30
2018-07-17T13:11:09.593Z,5.05
2018-07-17T13:13:38.499Z,5.50
2018-07-17T13:16:07.426Z,5.62
2018-07-17T13:18:36.197Z,5.00
2018-07-17T13:21:05.410Z,5.17
2018-07-17T13:23:34.202Z,4.90
2018-07-17T13:26:03.490Z,4.87
2018-07-17T13:28:32.559Z,4.80
2018-07-17T13:31:01.267Z,5.00
2018-07-17T13:33:29.941Z,4.83
2018-07-17T13:35:59.756Z,5.20
2018-07-17T13:38:28.617Z,5.05
2018-07-17T13:40:57.462Z,5.33
2018-07-17T13:43:26.291Z,5.40
2018-07-17T13:45:55.626Z,5.65
2018-07-17T13:48:24.495Z,8.25
2018-07-17T13:50:53.551Z,5.45
2018-07-17T13:53:22.468Z,5.03
2018-07-17T13:55:51.289Z,5.62
2018-07-17T13:58:20.222Z,5.40
2018-07-17T14:00:49.037Z,5.22
2018-07-17T14:03:17.719Z,4.90
2018-07-17T14:05:46.576Z,4.72
2018-07-17T14:08:15.299Z,4.92
2018-07-17T14:10:44.345Z,5.10
2018-07-17T14:13:13.057Z,4.55
2018-07-17T14:15:42.509Z,5.25
2018-07-17T14:18:11.522Z,4.92
2018-07-17T14:20:41.194Z,4.83
2018-07-17T14:23:09.980Z,4.72
2018-07-17T14:25:38.808Z,4.50
2018-07-17T14:28:08.017Z,4.80
2018-07-17T14:30:37.202Z,5.22
2018-07-17T14:33:06.662Z,5.53
2018-07-17T14:35:35.650Z,5.55
2018-07-17T14:38:04.408Z,5.03
2018-07-17T14:40:33.139Z,4.85
2018-07-17T14:43:01.889Z,4.58
2018-07-17T14:45:30.809Z,4.45
2018-07-17T14:47:59.515Z,5.10
2018-07-17T14:50:28.213Z,5.97
2018-07-17T14:52:56.981Z,5.40
2018-07-17T14:55:25.989Z,4.90
2018-07-17T14:57:54.671Z,5.42
2018-07-17T15:00:23.568Z,5.17
2018-07-17T15:02:52.425Z,4.92
2018-07-17T15:05:21.137Z,5.17
2018-07-17T15:07:50.061Z,5.10
2018-07-17T15:10:18.814Z,4.67
2018-07-17T15:12:47.504Z,4.83
2018-07-17T15:15:16.361Z,4.80
2018-07-17T15:17:44.867Z,5.17
2018-07-17T15:20:13.392Z,4.12
2018-07-17T15:22:41.808Z,4.83
2018-07-17T15:25:10.167Z,4.50
2018-07-17T15:27:39.035Z,5.10
2018-07-17T15:30:07.477Z,4.67
2018-07-17T15:32:35.969Z,4.55
2018-07-17T15:35:04.479Z,4.55
2018-07-17T15:37:32.935Z,4.58
2018-07-17T15:40:01.329Z,4.97
2018-07-17T15:42:30.190Z,4.28
2018-07-17T15:44:58.580Z,4.22
2018-07-17T15:47:27.318Z,4.22
2018-07-17T15:49:55.548Z,4.33
2018-07-17T15:52:24.107Z,2.70
2018-07-17T15:54:52.471Z,4.17
2018-07-17T15:57:21.199Z,4.22
2018-07-17T15:59:49.927Z,4.83
2018-07-17T16:02:18.270Z,4.28
2018-07-17T16:04:47.068Z,4.22
2018-07-17T16:07:15.871Z,4.08
2018-07-17T16:09:44.532Z,3.65
2018-07-17T16:12:12.816Z,3.60
2018-07-17T16:14:41.883Z,3.35
2018-07-17T16:17:10.493Z,3.58
2018-07-17T16:19:39.360Z,3.67
2018-07-17T16:22:07.759Z,3.27
2018-07-17T16:24:37.150Z,3.70
2018-07-17T16:27:06.106Z,3.60
2018-07-17T16:29:35.592Z,3.92
2018-07-17T16:32:04.377Z,3.60
2018-07-17T16:34:33.239Z,3.95
2018-07-17T16:37:02.149Z,4.00
2018-07-17T16:39:31.173Z,3.77
2018-07-17T16:42:00.686Z,4.37
2018-07-17T16:44:29.329Z,4.03
2018-07-17T16:46:58.269Z,4.60
2018-07-17T16:49:27.406Z,4.60
2018-07-17T16:51:56.454Z,4.55
2018-07-17T16:54:25.488Z,4.33
2018-07-17T16:56:54.228Z,5.10
2018-07-17T16:59:23.293Z,5.10
2018-07-17T17:01:52.687Z,4.40
2018-07-17T17:04:21.723Z,4.87
2018-07-17T17:06:50.621Z,4.40
2018-07-17T17:09:19.644Z,4.45
2018-07-17T17:11:48.916Z,4.22
2018-07-17T17:14:18.409Z,4.40
2018-07-17T17:16:47.152Z,4.15
2018-07-17T17:19:16.392Z,4.40
2018-07-17T17:21:44.904Z,4.33
2018-07-17T17:24:14.217Z,5.85
2018-07-17T17:26:42.865Z,4.00
2018-07-17T17:29:11.685Z,4.35
2018-07-17T17:31:40.368Z,4.08
2018-07-17T17:34:10.140Z,4.10
2018-07-17T17:36:38.955Z,3.95
2018-07-17T17:39:10.624Z,4.15
2018-07-17T17:41:39.668Z,5.53
2018-07-17T17:44:09.608Z,4.15
2018-07-17T17:46:38.473Z,4.72
2018-07-17T17:49:07.892Z,4.10
2018-07-17T17:51:37.813Z,4.28
2018-07-17T17:54:06.511Z,4.53
2018-07-17T17:56:35.513Z,4.17
2018-07-17T17:59:04.439Z,3.90
2018-07-17T18:01:33.446Z,4.10
2018-07-17T18:04:02.312Z,4.17
2018-07-17T18:06:31.096Z,3.92
2018-07-17T18:09:00.028Z,4.40
2018-07-17T18:11:29.436Z,4.45
2018-07-17T18:13:57.914Z,4.05
2018-07-17T18:16:27.658Z,9.00
2018-07-17T18:18:56.480Z,7.05
2018-07-17T18:21:25.898Z,4.78
2018-07-17T18:23:54.737Z,4.47
2018-07-17T18:26:23.730Z,4.80
2018-07-17T18:28:52.964Z,4.53
2018-07-17T18:31:22.160Z,4.55
2018-07-17T18:33:50.897Z,4.60
2018-07-17T18:36:19.942Z,4.65
2018-07-17T18:38:48.752Z,6.15
2018-07-17T18:41:17.799Z,4.80
2018-07-17T18:43:46.556Z,4.80
2018-07-17T18:46:15.707Z,4.45
2018-07-17T18:48:50.082Z,4.55
2018-07-17T18:51:19.141Z,4.30
2018-07-17T18:53:48.771Z,4.50
2018-07-17T18:56:17.659Z,5.70
2018-07-17T18:58:46.394Z,4.90
2018-07-17T19:01:15.167Z,5.22
2018-07-17T19:03:44.134Z,5.58
2018-07-17T19:06:13.306Z,5.00
2018-07-17T19:08:42.066Z,5.08
2018-07-17T19:11:10.801Z,5.17
2018-07-17T19:13:39.213Z,7.05
2018-07-17T19:16:07.938Z,5.17
2018-07-17T19:18:36.912Z,7.00
2018-07-17T19:21:05.842Z,6.00
2018-07-17T19:23:34.948Z,6.72
2018-07-17T19:26:04.226Z,6.70
2018-07-17T19:28:32.700Z,5.80
2018-07-17T19:31:01.129Z,6.58
2018-07-17T19:33:30.053Z,6.40
2018-07-17T19:35:59.326Z,6.47
2018-07-17T19:38:28.065Z,6.20
2018-07-17T19:40:56.869Z,6.05
2018-07-17T19:43:25.799Z,5.50
2018-07-17T19:45:54.821Z,6.33
2018-07-17T19:48:23.518Z,5.60
2018-07-17T19:50:52.246Z,4.95
2018-07-17T19:53:21.356Z,4.70
2018-07-17T19:55:51.182Z,4.65
2018-07-17T19:58:20.251Z,3.60
2018-07-17T20:00:49.487Z,3.75
2018-07-17T20:03:18.557Z,6.72
2018-07-17T20:05:47.488Z,3.30
2018-07-17T20:08:16.475Z,2.92
2018-07-17T20:10:45.227Z,4.00
2018-07-17T20:13:14.481Z,3.92
2018-07-17T20:15:43.426Z,4.30
2018-07-17T20:18:12.825Z,4.35
2018-07-17T20:20:42.695Z,5.75
2018-07-17T20:23:13.512Z,5.35
2018-07-17T20:25:42.769Z,5.85
2018-07-17T20:28:11.668Z,6.50
2018-07-17T20:30:40.510Z,8.75
2018-07-17T20:33:09.848Z,7.58
2018-07-17T20:35:38.581Z,8.83
2018-07-17T20:38:07.275Z,9.38
2018-07-17T20:40:36.234Z,10.10
2018-07-17T20:43:05.305Z,9.20
2018-07-17T20:45:34.524Z,11.12
2018-07-17T20:48:03.804Z,11.95
2018-07-17T20:50:32.867Z,12.75
2018-07-17T20:53:01.903Z,12.25
2018-07-17T20:55:31.168Z,12.85
2018-07-17T20:58:00.450Z,12.25
2018-07-17T21:00:29.329Z,13.58
2018-07-17T21:02:58.428Z,14.38
2018-07-17T21:05:27.257Z,14.68
2018-07-17T21:07:55.976Z,14.03
2018-07-17T21:10:24.990Z,15.25
2018-07-17T21:12:53.836Z,15.55
2018-07-17T21:15:22.520Z,15.35
2018-07-17T21:17:51.402Z,14.43
2018-07-17T21:20:21.624Z,17.23
2018-07-17T21:22:50.624Z,17.62
2018-07-17T21:25:19.587Z,16.57
2018-07-17T21:27:49.271Z,16.80
2018-07-17T21:30:18.518Z,16.32
2018-07-17T21:32:47.270Z,16.80
2018-07-17T21:35:16.195Z,16.02
2018-07-17T21:37:44.909Z,16.20
2018-07-17T21:40:14.127Z,13.45
2018-07-17T21:42:42.558Z,14.58
2018-07-17T21:45:11.980Z,17.92
2018-07-17T21:47:40.968Z,17.60
2018-07-17T21:50:10.609Z,17.98
2018-07-17T21:52:40.148Z,18.95
2018-07-17T21:55:09.418Z,19.62
2018-07-17T21:57:38.362Z,17.48
2018-07-17T22:00:10.559Z,13.58
2018-07-17T22:02:39.387Z,18.73
2018-07-17T22:05:08.136Z,18.37
2018-07-17T22:07:38.275Z,17.95
2018-07-17T22:10:08.253Z,17.37
2018-07-17T22:12:37.100Z,18.02
2018-07-17T22:15:06.322Z,20.48
2018-07-17T22:17:35.934Z,17.42
2018-07-17T22:20:05.344Z,17.15
2018-07-17T22:22:34.134Z,16.35
2018-07-17T22:25:03.571Z,17.12
2018-07-17T22:27:33.070Z,15.63
2018-07-17T22:30:02.073Z,13.95
2018-07-17T22:32:31.770Z,16.90
2018-07-17T22:35:00.790Z,16.02
2018-07-17T22:37:29.660Z,15.65
2018-07-17T22:39:59.020Z,14.93
2018-07-17T22:42:28.693Z,15.98
2018-07-17T22:44:57.455Z,13.55
2018-07-17T22:49:50.809Z,15.23
2018-07-17T22:52:19.913Z,15.53
2018-07-17T22:54:49.500Z,15.55
2018-07-17T22:57:18.405Z,16.48
2018-07-17T22:59:47.189Z,13.93
2018-07-17T23:02:16.858Z,14.87
2018-07-17T23:04:45.666Z,14.87
2018-07-17T23:07:15.097Z,17.17
2018-07-17T23:09:46.072Z,16.62
2018-07-17T23:12:14.486Z,13.58
2018-07-17T23:14:43.836Z,16.42
2018-07-17T23:17:12.818Z,17.12
2018-07-17T23:19:41.508Z,17.92
2018-07-17T23:22:13.738Z,18.15
2018-07-17T23:24:44.189Z,17.32
2018-07-17T23:27:13.453Z,17.92
2018-07-17T23:29:43.682Z,13.15
2018-07-17T23:32:14.124Z,18.07
2018-07-17T23:34:43.014Z,16.42
2018-07-17T23:37:11.910Z,18.07
2018-07-17T23:39:41.147Z,20.02
2018-07-17T23:42:12.269Z,17.90
2018-07-17T23:44:41.607Z,18.65
2018-07-17T23:47:12.591Z,19.57
2018-07-17T23:49:43.894Z,13.95
2018-07-17T23:52:13.783Z,18.10
2018-07-17T23:54:43.653Z,17.05
2018-07-17T23:57:12.945Z,17.60
2018-07-17T23:59:43.353Z,16.12
